createdAt,value
2023-01-18T00:55:43.129Z,94.93
2023-01-18T00:58:15.585Z,95.05
2023-01-18T01:00:45.469Z,94.95
2023-01-18T01:03:16.410Z,94.91
2023-01-18T01:06:10.589Z,94.96
2023-01-18T01:08:43.411Z,94.78
2023-01-18T01:11:15.108Z,94.68
2023-01-18T01:13:59.865Z,94.55
2023-01-18T01:16:42.089Z,94.64
2023-01-18T01:19:24.291Z,94.57
2023-01-18T01:22:06.606Z,94.44
2023-01-18T01:24:48.767Z,94.55
2023-01-18T01:27:18.611Z,94.50
2023-01-18T01:29:52.686Z,94.44
2023-01-18T01:32:22.450Z,94.42
2023-01-18T01:34:52.189Z,94.40
2023-01-18T01:37:21.919Z,94.34
2023-01-18T01:39:51.704Z,94.54
2023-01-18T01:42:21.499Z,94.37
2023-01-18T01:44:54.673Z,94.41
2023-01-18T01:47:42.832Z,94.37
2023-01-18T01:50:22.655Z,94.35
2023-01-18T01:52:52.722Z,94.49
2023-01-18T01:55:27.492Z,94.38
2023-01-18T01:58:03.407Z,94.38
2023-01-18T02:00:36.584Z,94.21
2023-01-18T02:03:10.381Z,94.22
2023-01-18T02:05:46.527Z,94.20
2023-01-18T02:08:22.876Z,94.09
2023-01-18T02:10:53.455Z,94.10
2023-01-18T02:13:25.822Z,94.11
2023-01-18T02:16:08.431Z,94.11
2023-01-18T02:18:48.851Z,94.25
2023-01-18T02:21:21.398Z,94.07
2023-01-18T02:24:23.733Z,94.11
2023-01-18T02:26:59.940Z,94.33
2023-01-18T02:29:55.585Z,94.39
2023-01-18T02:32:41.762Z,94.35
2023-01-18T02:35:14.867Z,94.36
2023-01-18T02:37:51.832Z,94.45
2023-01-18T02:40:27.169Z,94.62
2023-01-18T02:43:11.458Z,94.51
2023-01-18T02:45:59.304Z,94.69
2023-01-18T02:48:36.237Z,94.62
2023-01-18T02:51:06.952Z,94.66
2023-01-18T02:53:41.494Z,94.93
2023-01-18T02:56:16.466Z,94.96
2023-01-18T02:58:49.998Z,95.00
2023-01-18T03:01:30.393Z,94.96
2023-01-18T03:04:04.539Z,95.00
2023-01-18T03:06:36.046Z,95.09
2023-01-18T03:09:06.200Z,95.14
2023-01-18T03:11:43.523Z,95.22
2023-01-18T03:14:21.603Z,95.36
2023-01-18T03:17:01.529Z,95.35
2023-01-18T03:19:52.649Z,95.45
2023-01-18T03:22:42.608Z,95.44
2023-01-18T03:25:13.230Z,95.53
2023-01-18T03:27:58.263Z,95.50
2023-01-18T03:30:40.621Z,95.63
2023-01-18T03:33:26.253Z,95.71
2023-01-18T03:35:58.252Z,95.75
2023-01-18T03:38:28.799Z,95.83
2023-01-18T03:41:00.113Z,95.89
2023-01-18T03:43:36.492Z,95.98
2023-01-18T03:46:08.248Z,96.08
2023-01-18T03:48:40.668Z,96.08
2023-01-18T03:51:18.829Z,96.22
2023-01-18T03:53:58.329Z,96.07
2023-01-18T03:56:37.494Z,96.23
2023-01-18T03:59:09.028Z,96.20
2023-01-18T04:01:39.487Z,96.28
2023-01-18T04:04:11.860Z,96.29
2023-01-18T04:06:41.727Z,96.18
2023-01-18T04:09:11.963Z,96.29
2023-01-18T04:11:41.723Z,96.30
2023-01-18T04:14:11.493Z,96.28
2023-01-18T04:16:41.242Z,96.18
2023-01-18T04:19:13.655Z,96.18
2023-01-18T04:21:46.415Z,96.32
2023-01-18T04:24:17.379Z,96.26
2023-01-18T04:26:47.126Z,96.32
2023-01-18T04:29:17.356Z,96.23
2023-01-18T04:31:47.325Z,96.35
2023-01-18T04:34:20.460Z,96.31
2023-01-18T04:36:50.227Z,96.11
2023-01-18T04:39:20.537Z,96.20
2023-01-18T04:41:50.320Z,96.27
2023-01-18T04:44:20.318Z,96.15
2023-01-18T04:46:51.185Z,96.08
2023-01-18T04:49:24.276Z,96.09
2023-01-18T04:51:54.037Z,96.17
2023-01-18T04:54:23.785Z,96.02
2023-01-18T04:56:53.792Z,96.11
2023-01-18T04:59:23.550Z,96.14
2023-01-18T05:01:53.295Z,95.97
2023-01-18T05:04:25.745Z,96.03
2023-01-18T05:06:55.499Z,96.17
2023-01-18T05:09:25.256Z,96.11
2023-01-18T05:11:54.997Z,96.10
2023-01-18T05:14:24.771Z,95.91
2023-01-18T05:16:54.509Z,96.04
2023-01-18T05:19:30.749Z,96.04
2023-01-18T05:22:00.499Z,96.04
2023-01-18T05:24:30.366Z,96.18
2023-01-18T05:27:00.252Z,96.06
2023-01-18T05:29:30.131Z,96.17
2023-01-18T05:31:59.892Z,96.12
2023-01-18T05:34:32.238Z,96.15
2023-01-18T05:37:02.054Z,96.24
2023-01-18T05:39:31.814Z,96.24
2023-01-18T05:42:01.717Z,96.22
2023-01-18T05:44:31.482Z,96.33
2023-01-18T05:47:01.907Z,96.20
2023-01-18T05:49:34.672Z,96.58
2023-01-18T05:52:04.751Z,96.50
2023-01-18T05:54:34.638Z,96.56
2023-01-18T05:57:04.525Z,96.50
2023-01-18T05:59:34.477Z,96.54
2023-01-18T06:02:04.428Z,96.63
2023-01-18T06:04:36.967Z,96.59
2023-01-18T06:07:06.889Z,96.53
2023-01-18T06:09:36.649Z,96.64
2023-01-18T06:12:10.378Z,96.69
2023-01-18T06:14:40.149Z,96.70
2023-01-18T06:17:09.954Z,96.64
2023-01-18T06:19:42.398Z,96.73
2023-01-18T06:22:12.217Z,96.84
2023-01-18T06:24:41.971Z,96.92
2023-01-18T06:27:11.750Z,96.72
2023-01-18T06:29:41.536Z,96.79
2023-01-18T06:32:11.290Z,96.80
2023-01-18T06:34:43.670Z,96.91
2023-01-18T06:37:13.471Z,96.85
2023-01-18T06:39:43.271Z,96.85
2023-01-18T06:42:13.027Z,96.93
2023-01-18T06:44:42.788Z,96.99
2023-01-18T06:47:12.554Z,96.92
2023-01-18T06:49:44.935Z,96.86
2023-01-18T06:52:14.686Z,96.96
2023-01-18T06:54:44.997Z,97.01
2023-01-18T06:57:15.621Z,96.99
2023-01-18T06:59:45.378Z,97.03
2023-01-18T07:02:18.109Z,97.02
2023-01-18T07:04:50.490Z,97.06
2023-01-18T07:07:20.326Z,96.97
2023-01-18T07:09:50.162Z,97.16
2023-01-18T07:12:19.919Z,96.99
2023-01-18T07:14:49.751Z,97.08
2023-01-18T07:17:19.701Z,97.13
2023-01-18T07:19:52.053Z,97.16
2023-01-18T07:22:21.948Z,97.11
2023-01-18T07:24:51.761Z,97.13
2023-01-18T07:27:21.534Z,97.19
2023-01-18T07:29:51.274Z,97.07
2023-01-18T07:32:21.010Z,97.07
2023-01-18T07:34:53.366Z,97.05
2023-01-18T07:37:23.142Z,97.14
2023-01-18T07:39:52.886Z,97.18
2023-01-18T07:42:22.673Z,97.12
2023-01-18T07:44:52.438Z,97.17
2023-01-18T07:47:22.213Z,97.29
2023-01-18T07:49:54.569Z,97.25
2023-01-18T07:52:24.309Z,97.17
2023-01-18T07:54:54.098Z,97.14
2023-01-18T07:57:23.993Z,97.21
2023-01-18T07:59:54.158Z,97.30
2023-01-18T08:02:24.402Z,97.11
2023-01-18T08:04:57.039Z,97.29
2023-01-18T08:07:26.894Z,97.38
2023-01-18T08:09:57.996Z,97.38
2023-01-18T08:12:28.125Z,97.36
2023-01-18T08:14:57.877Z,97.43
2023-01-18T08:17:28.078Z,97.61
2023-01-18T08:20:00.425Z,97.54
2023-01-18T08:22:30.259Z,97.65
2023-01-18T08:25:00.202Z,97.73
2023-01-18T08:27:46.380Z,97.84
2023-01-18T08:30:17.092Z,97.93
2023-01-18T08:32:46.894Z,97.97
2023-01-18T08:35:19.402Z,98.11
2023-01-18T08:37:49.175Z,98.01
2023-01-18T08:40:19.066Z,98.25
2023-01-18T08:42:51.301Z,98.42
2023-01-18T08:45:21.145Z,98.65
2023-01-18T08:47:50.935Z,98.85
2023-01-18T08:50:23.404Z,98.97
2023-01-18T08:52:54.220Z,99.29
2023-01-18T08:55:24.841Z,99.36
2023-01-18T08:57:57.765Z,99.56
2023-01-18T09:00:30.299Z,99.77
2023-01-18T09:03:02.171Z,99.88
2023-01-18T09:05:36.832Z,99.87
2023-01-18T09:08:06.673Z,99.91
2023-01-18T09:10:37.683Z,100.00
2023-01-18T09:13:08.443Z,99.97
2023-01-18T09:15:38.238Z,100.00
2023-01-18T09:18:08.843Z,100.00
2023-01-18T09:20:43.608Z,99.93
2023-01-18T09:23:13.460Z,99.98
2023-01-18T09:25:43.352Z,100.00
2023-01-18T09:28:13.233Z,99.88
2023-01-18T09:30:43.010Z,99.82
2023-01-18T09:33:13.107Z,99.55
2023-01-18T09:35:45.562Z,99.72
2023-01-18T09:38:16.223Z,99.43
2023-01-18T09:40:47.711Z,99.37
2023-01-18T09:43:23.777Z,99.41
2023-01-18T09:45:53.642Z,99.06
2023-01-18T09:48:32.415Z,99.06
2023-01-18T09:51:11.498Z,98.91
2023-01-18T09:53:57.193Z,98.88
2023-01-18T09:56:30.379Z,98.78
2023-01-18T09:59:14.798Z,98.70
2023-01-18T10:01:45.031Z,98.52
2023-01-18T10:04:20.388Z,98.52
2023-01-18T10:06:58.389Z,98.54
2023-01-18T10:09:32.575Z,98.44
2023-01-18T10:12:03.984Z,98.34
2023-01-18T10:14:46.650Z,98.48
2023-01-18T10:17:20.822Z,98.40
2023-01-18T10:19:50.735Z,98.29
2023-01-18T10:22:28.337Z,98.39
2023-01-18T10:25:04.411Z,98.27
2023-01-18T10:27:48.198Z,98.36
2023-01-18T10:30:43.941Z,98.27
2023-01-18T10:33:21.453Z,98.37
2023-01-18T10:35:54.055Z,98.43
2023-01-18T10:38:30.479Z,98.31
2023-01-18T10:41:01.816Z,98.32
2023-01-18T10:43:34.575Z,98.46
2023-01-18T10:46:04.405Z,98.38
2023-01-18T10:48:36.439Z,98.39
2023-01-18T10:51:09.142Z,98.37
2023-01-18T10:53:42.556Z,98.43
2023-01-18T10:56:19.470Z,98.43
2023-01-18T10:58:57.922Z,98.46
2023-01-18T11:01:30.387Z,98.50
2023-01-18T11:04:06.115Z,98.42
2023-01-18T11:06:48.383Z,98.62
2023-01-18T11:09:44.775Z,98.55
2023-01-18T11:12:37.708Z,98.52
2023-01-18T11:15:26.863Z,98.73
2023-01-18T11:18:06.649Z,98.64
2023-01-18T11:20:44.740Z,98.37
2023-01-18T11:23:21.624Z,98.50
2023-01-18T11:26:00.901Z,98.44
2023-01-18T11:28:37.457Z,98.42
2023-01-18T11:31:13.849Z,98.43
2023-01-18T11:33:52.841Z,98.66
2023-01-18T11:36:35.827Z,98.62
2023-01-18T11:39:44.752Z,98.69
2023-01-18T11:42:27.128Z,98.43
2023-01-18T11:45:08.018Z,98.49
2023-01-18T11:47:49.183Z,98.59
2023-01-18T11:50:30.834Z,98.45
2023-01-18T11:53:07.715Z,98.66
2023-01-18T11:55:47.719Z,98.57
2023-01-18T11:58:28.473Z,98.57
2023-01-18T12:01:11.399Z,98.57
2023-01-18T12:03:54.625Z,98.53
2023-01-18T12:06:39.094Z,98.61
2023-01-18T12:09:31.894Z,98.50
2023-01-18T12:12:19.465Z,98.55
2023-01-18T12:15:03.541Z,98.57
2023-01-18T12:17:56.469Z,98.43
2023-01-18T12:20:37.107Z,98.40
2023-01-18T12:23:36.113Z,98.36
2023-01-18T12:26:24.002Z,98.33
2023-01-18T12:29:20.004Z,98.30
2023-01-18T12:32:02.878Z,98.25
2023-01-18T12:34:43.221Z,98.38
2023-01-18T12:37:32.329Z,98.37
2023-01-18T12:40:21.533Z,98.26
2023-01-18T12:43:03.306Z,98.12
2023-01-18T12:45:39.555Z,98.25
2023-01-18T12:48:19.227Z,98.22
2023-01-18T12:50:52.107Z,98.19
2023-01-18T12:53:32.018Z,98.20
2023-01-18T12:56:14.813Z,97.94
2023-01-18T12:58:45.291Z,97.92
2023-01-18T13:01:21.943Z,98.02
2023-01-18T13:03:56.742Z,97.83
2023-01-18T13:06:28.456Z,97.90
2023-01-18T13:09:03.856Z,97.78
2023-01-18T13:11:37.626Z,97.87
2023-01-18T13:14:17.844Z,97.81
2023-01-18T13:16:53.727Z,97.68
2023-01-18T13:19:29.578Z,97.63
2023-01-18T13:22:07.427Z,97.51
2023-01-18T13:24:58.290Z,97.59
2023-01-18T13:27:28.075Z,97.37
2023-01-18T13:30:09.678Z,97.50
2023-01-18T13:32:42.512Z,97.43
2023-01-18T13:35:25.870Z,97.26
2023-01-18T13:37:58.615Z,97.32
2023-01-18T13:40:40.500Z,97.26
2023-01-18T13:43:34.028Z,97.31
2023-01-18T13:46:06.603Z,97.24
2023-01-18T13:48:50.596Z,97.15
2023-01-18T13:51:54.069Z,96.99
2023-01-18T13:54:53.784Z,97.07
2023-01-18T13:57:26.917Z,96.92
2023-01-18T13:59:56.826Z,97.04
2023-01-18T14:02:32.201Z,96.96
2023-01-18T14:05:04.629Z,96.84
2023-01-18T14:07:43.400Z,96.86
2023-01-18T14:10:33.409Z,96.98
2023-01-18T14:13:07.454Z,96.89
2023-01-18T14:15:51.620Z,97.04
2023-01-18T14:18:25.685Z,97.01
2023-01-18T14:21:13.668Z,97.05
2023-01-18T14:24:06.267Z,97.01
2023-01-18T14:26:38.428Z,97.00
2023-01-18T14:29:17.606Z,96.99
2023-01-18T14:31:51.609Z,96.97
2023-01-18T14:34:42.998Z,97.08
2023-01-18T14:37:28.895Z,97.05
2023-01-18T14:40:21.654Z,97.01
2023-01-18T14:42:55.318Z,97.06
2023-01-18T14:45:32.805Z,96.98
2023-01-18T14:48:04.446Z,97.00
2023-01-18T14:50:39.314Z,97.11
2023-01-18T14:53:16.845Z,97.05
2023-01-18T14:55:46.651Z,97.09
2023-01-18T14:58:19.386Z,97.16
2023-01-18T15:00:54.311Z,97.25
2023-01-18T15:03:27.520Z,97.13
2023-01-18T15:06:02.790Z,97.26
2023-01-18T15:08:35.290Z,97.24
2023-01-18T15:11:07.947Z,97.27
2023-01-18T15:13:47.636Z,97.43
2023-01-18T15:16:24.040Z,97.59
2023-01-18T15:18:55.647Z,97.76
2023-01-18T15:21:27.612Z,97.73
2023-01-18T15:24:04.527Z,98.00
2023-01-18T15:26:46.018Z,98.00
2023-01-18T15:29:20.143Z,98.18
2023-01-18T15:31:58.118Z,98.43
2023-01-18T15:34:33.434Z,98.53
2023-01-18T15:37:04.635Z,98.62
2023-01-18T15:39:35.302Z,98.94
2023-01-18T15:42:08.184Z,99.05
2023-01-18T15:44:45.029Z,99.19
2023-01-18T15:47:26.184Z,99.25
2023-01-18T15:49:58.876Z,99.33
2023-01-18T15:52:40.392Z,99.61
2023-01-18T15:55:21.665Z,99.61
2023-01-18T15:58:02.630Z,99.92
2023-01-18T16:00:37.074Z,100.00
2023-01-18T16:03:19.870Z,100.00
2023-01-18T16:06:11.252Z,100.00
2023-01-18T16:08:58.456Z,100.00
2023-01-18T16:11:32.009Z,100.00
2023-01-18T16:14:07.845Z,100.00
2023-01-18T16:16:40.970Z,100.00
2023-01-18T16:19:24.948Z,100.00
2023-01-18T16:21:59.203Z,100.00
2023-01-18T16:24:38.631Z,100.00
2023-01-18T16:27:13.227Z,100.00
2023-01-18T16:29:48.268Z,100.00
2023-01-18T16:32:32.267Z,100.00
2023-01-18T16:35:18.749Z,100.00
2023-01-18T16:37:48.822Z,100.00
2023-01-18T16:40:21.453Z,100.00
2023-01-18T16:43:01.647Z,100.00
2023-01-18T16:45:35.152Z,100.00
2023-01-18T16:48:07.240Z,100.00
2023-01-18T16:50:42.063Z,100.00
2023-01-18T16:53:14.185Z,100.00
2023-01-18T16:55:45.549Z,100.00
2023-01-18T16:58:16.814Z,100.00
2023-01-18T17:00:53.823Z,100.00
2023-01-18T17:03:23.842Z,100.00
2023-01-18T17:05:57.976Z,100.00
2023-01-18T17:08:27.888Z,100.00
2023-01-18T17:10:57.825Z,100.00
2023-01-18T17:13:28.180Z,100.00
2023-01-18T17:15:58.110Z,100.00
2023-01-18T17:18:28.451Z,100.00
2023-01-18T17:21:01.576Z,100.00
2023-01-18T17:23:33.162Z,100.00
2023-01-18T17:26:03.341Z,100.00
2023-01-18T17:28:33.650Z,100.00
2023-01-18T17:31:03.676Z,100.00
2023-01-18T17:33:38.891Z,100.00
2023-01-18T17:36:12.061Z,100.00
2023-01-18T17:38:42.011Z,100.00
2023-01-18T17:41:26.837Z,100.00
2023-01-18T17:43:57.145Z,100.00
2023-01-18T17:46:27.306Z,100.00
2023-01-18T17:48:57.347Z,100.00
2023-01-18T17:51:29.860Z,100.00
2023-01-18T17:54:02.076Z,100.00
2023-01-18T17:56:32.130Z,100.00
2023-01-18T17:59:01.940Z,100.00
2023-01-18T18:01:31.934Z,100.00
2023-01-18T18:04:01.859Z,100.00
2023-01-18T18:06:36.302Z,100.00
2023-01-18T18:09:07.170Z,100.00
2023-01-18T18:11:37.231Z,100.00
2023-01-18T18:14:06.984Z,100.00
2023-01-18T18:16:43.254Z,100.00
2023-01-18T18:19:14.764Z,100.00
2023-01-18T18:21:48.061Z,100.00
2023-01-18T18:24:17.837Z,100.00
2023-01-18T18:26:51.259Z,100.00
2023-01-18T18:29:21.482Z,100.00
2023-01-18T18:31:51.386Z,100.00
2023-01-18T18:34:21.288Z,100.00
2023-01-18T18:36:53.806Z,100.00
2023-01-18T18:39:23.835Z,100.00
2023-01-18T18:41:53.658Z,100.00
2023-01-18T18:44:23.621Z,100.00
2023-01-18T18:46:53.408Z,100.00
2023-01-18T18:49:23.198Z,100.00
2023-01-18T18:51:56.251Z,100.00
2023-01-18T18:54:26.071Z,100.00
2023-01-18T18:57:00.312Z,100.00
2023-01-18T18:59:31.435Z,100.00
2023-01-18T19:02:09.144Z,100.00
2023-01-18T19:04:39.064Z,100.00
2023-01-18T19:07:11.669Z,100.00
2023-01-18T19:09:41.621Z,100.00
2023-01-18T19:12:12.078Z,100.00
2023-01-18T19:14:44.942Z,100.00
2023-01-18T19:17:28.960Z,100.00
2023-01-18T19:20:00.893Z,100.00
2023-01-18T19:22:33.423Z,100.00
2023-01-18T19:25:05.883Z,100.00
2023-01-18T19:27:35.931Z,100.00
2023-01-18T19:30:12.087Z,100.00
2023-01-18T19:32:42.198Z,100.00
2023-01-18T19:35:13.716Z,100.00
2023-01-18T19:37:46.516Z,100.00
2023-01-18T19:40:17.565Z,100.00
2023-01-18T19:42:54.720Z,100.00
2023-01-18T19:45:28.832Z,100.00
2023-01-18T19:48:00.729Z,100.00
2023-01-18T19:50:32.651Z,100.00
2023-01-18T19:53:05.286Z,100.00
2023-01-18T19:55:37.402Z,100.00
2023-01-18T19:58:09.715Z,100.00
2023-01-18T20:00:41.644Z,100.00
2023-01-18T20:03:15.600Z,100.00
2023-01-18T20:06:25.319Z,100.00
2023-01-18T20:08:57.891Z,100.00
2023-01-18T20:11:27.785Z,100.00
2023-01-18T20:13:57.595Z,100.00
2023-01-18T20:16:27.485Z,100.00
2023-01-18T20:18:57.407Z,100.00
2023-01-18T20:21:27.264Z,100.00
2023-01-18T20:24:01.112Z,100.00
2023-01-18T20:26:37.262Z,100.00
2023-01-18T20:29:08.402Z,100.00
2023-01-18T20:31:39.587Z,100.00
2023-01-18T20:34:12.331Z,100.00
2023-01-18T20:36:42.262Z,100.00
2023-01-18T20:39:16.443Z,100.00
2023-01-18T20:41:48.860Z,100.00
2023-01-18T20:44:19.006Z,100.00
2023-01-18T20:46:55.164Z,100.00
2023-01-18T20:49:37.298Z,100.00
2023-01-18T20:52:08.814Z,100.00
2023-01-18T20:54:41.592Z,100.00
2023-01-18T20:57:11.540Z,100.00
2023-01-18T20:59:41.539Z,100.00
2023-01-18T21:02:12.921Z,100.00
2023-01-18T21:04:47.511Z,100.00
2023-01-18T21:07:17.508Z,100.00
2023-01-18T21:09:49.907Z,100.00
2023-01-18T21:12:19.888Z,100.00
2023-01-18T21:14:50.005Z,100.00
2023-01-18T21:17:20.353Z,100.00
2023-01-18T21:19:53.592Z,100.00
2023-01-18T21:22:24.365Z,100.00
2023-01-18T21:24:57.264Z,100.00
2023-01-18T21:27:28.811Z,100.00
2023-01-18T21:29:58.676Z,100.00
2023-01-18T21:32:28.679Z,100.00
2023-01-18T21:34:58.738Z,100.00
2023-01-18T21:37:29.817Z,100.00
2023-01-18T21:40:02.206Z,100.00
2023-01-18T21:42:44.510Z,100.00
2023-01-18T21:45:27.249Z,100.00
2023-01-18T21:47:57.068Z,100.00
2023-01-18T21:50:39.260Z,100.00
2023-01-18T21:53:24.535Z,100.00
2023-01-18T21:55:56.936Z,100.00
2023-01-18T21:58:40.360Z,100.00
2023-01-18T22:01:13.610Z,100.00
2023-01-18T22:04:04.448Z,100.00
2023-01-18T22:06:34.254Z,100.00
2023-01-18T22:09:04.772Z,100.00
2023-01-18T22:11:37.232Z,100.00
2023-01-18T22:14:07.358Z,100.00
2023-01-18T22:16:37.464Z,100.00
2023-01-18T22:19:07.704Z,100.00
2023-01-18T22:21:37.668Z,100.00
2023-01-18T22:24:08.127Z,100.00
2023-01-18T22:26:41.022Z,100.00
2023-01-18T22:29:11.369Z,100.00
2023-01-18T22:31:41.421Z,100.00
2023-01-18T22:34:21.382Z,100.00
2023-01-18T22:36:51.139Z,100.00
2023-01-18T22:39:20.975Z,100.00
2023-01-18T22:41:53.328Z,100.00
2023-01-18T22:44:23.214Z,100.00
2023-01-18T22:46:53.073Z,100.00
2023-01-18T22:49:22.949Z,100.00
2023-01-18T22:51:52.744Z,100.00
2023-01-18T22:54:23.168Z,100.00
2023-01-18T22:56:55.557Z,100.00
2023-01-18T22:59:25.341Z,100.00
2023-01-18T23:01:55.160Z,100.00
2023-01-18T23:04:24.964Z,100.00
2023-01-18T23:06:57.971Z,100.00
2023-01-18T23:09:28.148Z,100.00
2023-01-18T23:12:00.546Z,100.00
2023-01-18T23:14:42.698Z,100.00
2023-01-18T23:17:26.374Z,100.00
2023-01-18T23:19:56.103Z,100.00
2023-01-18T23:22:25.871Z,100.00
2023-01-18T23:24:55.649Z,100.00
2023-01-18T23:27:28.217Z,100.00
2023-01-18T23:29:59.365Z,100.00
2023-01-18T23:32:30.667Z,100.00
2023-01-18T23:35:01.225Z,100.00
2023-01-18T23:37:31.302Z,100.00
2023-01-18T23:40:13.471Z,100.00
2023-01-18T23:42:58.376Z,100.00
2023-01-18T23:45:40.657Z,100.00
2023-01-18T23:48:25.147Z,100.00
2023-01-18T23:51:07.334Z,100.00
2023-01-18T23:53:49.477Z,100.00
2023-01-18T23:56:19.274Z,100.00
2023-01-18T23:58:51.633Z,100.00
